Sst Orleans — CFN5087 — position and weather

sailwx.info

Track history (hours):
 
Tides and Currents Weather Stations Pressure Air Temp Water Temp Dewpoint Dewpoint Depression Visibility Wind Speed Wind Dir Waves Ship Positions

Sst Orleans

Last reported at 2016-Feb-13 04:34 UTC. Time now 2016-Feb-13 04:37 UTC.
Position N 49°18' W 123°03'.

Length 29 m; draft 5.1 m.

Type: . MMSI: 316012721.

Date/timePositionNaut miles runAvg speedWind from/ knotsBaromVisibWave heightAir tempDewpointWater temp
2016-Feb-13 04:34N 49°18' W 123°03'1 0.6
2016-Feb-13 03:34N 49°18' W 123°04'0 0.1
2016-Feb-13 02:34N 49°17' W 123°04'1 0.8
2016-Feb-13 01:34N 49°17' W 123°05'1 0.8
2016-Feb-13 00:34N 49°17' W 123°04'0 0.0
2016-Feb-12 23:34N 49°17' W 123°04'0 0.0
2016-Feb-12 22:34N 49°17' W 123°04'0 0.0
2016-Feb-12 21:34N 49°17' W 123°04'0 0.0
2016-Feb-12 20:34N 49°17' W 123°04'0 0.0
2016-Feb-12 19:34N 49°17' W 123°04'2 2.2
2016-Feb-12 18:34N 49°18' W 123°07'1 0.9
2016-Feb-12 17:33N 49°18' W 123°06'1 1.3
2016-Feb-12 16:34N 49°17' W 123°04'0 0.0
2016-Feb-12 15:34N 49°17' W 123°04'0 0.0
2016-Feb-12 14:34N 49°17' W 123°04'0 0.0
2016-Feb-12 13:34N 49°17' W 123°04'0 0.0
2016-Feb-12 12:34N 49°17' W 123°04'0 0.0
2016-Feb-12 11:34N 49°17' W 123°04'0 0.0
2016-Feb-12 10:34N 49°17' W 123°04'0 0.0
2016-Feb-12 09:34N 49°17' W 123°04'0 0.0
2016-Feb-12 08:33N 49°17' W 123°04'0 0.0
2016-Feb-12 07:33N 49°17' W 123°04'0 0.0
2016-Feb-12 06:34N 49°17' W 123°04'0 0.0
2016-Feb-12 05:33N 49°17' W 123°04'0 0.0
2016-Feb-12 04:34N 49°17' W 123°04'0 0.0
2016-Feb-12 03:34N 49°17' W 123°04'0 0.0
2016-Feb-12 02:34N 49°17' W 123°04'0 0.0
2016-Feb-12 01:34N 49°17' W 123°04'0 0.0
2016-Feb-12 00:34N 49°17' W 123°04'1 0.6
2016-Feb-11 23:34N 49°17' W 123°05'0 0.4
2016-Feb-11 22:34N 49°18' W 123°05'1 1.0
2016-Feb-11 21:34N 49°17' W 123°04'0 0.0
2016-Feb-11 20:34N 49°17' W 123°04'0 0.0
2016-Feb-11 19:34N 49°17' W 123°04'0 0.0
2016-Feb-11 18:34N 49°17' W 123°04'0 0.0
2016-Feb-11 17:34N 49°17' W 123°04'0 0.0
2016-Feb-11 16:33N 49°17' W 123°04'0 0.0
2016-Feb-11 15:34N 49°17' W 123°04'0 0.0
2016-Feb-11 14:33N 49°17' W 123°04'0 0.0
2016-Feb-11 13:34N 49°17' W 123°04'0 0.0
2016-Feb-11 12:34N 49°17' W 123°04'0 0.0
2016-Feb-11 11:34N 49°17' W 123°04'0 0.0
2016-Feb-11 10:34N 49°17' W 123°04'0 0.0
2016-Feb-11 09:33N 49°17' W 123°04'0 0.0
2016-Feb-11 08:34N 49°17' W 123°04'0 0.0
2016-Feb-11 07:33N 49°17' W 123°04'0 0.0
2016-Feb-11 06:34N 49°17' W 123°04'0 0.0
2016-Feb-11 05:34N 49°17' W 123°04'0 0.0
2016-Feb-11 04:34N 49°17' W 123°04'0 0.0
2016-Feb-11 03:34N 49°17' W 123°04'0 0.0
2016-Feb-11 02:34N 49°17' W 123°04'0 0.0
2016-Feb-11 01:34N 49°17' W 123°04'0 0.0
2016-Feb-11 00:34N 49°17' W 123°04'0 0.0
2016-Feb-10 23:34N 49°17' W 123°04'0 0.0
2016-Feb-10 22:34N 49°17' W 123°04'0 0.0
2016-Feb-10 21:34N 49°17' W 123°04'0 0.0
2016-Feb-10 20:34N 49°17' W 123°04'0 0.0
2016-Feb-10 19:34N 49°17' W 123°04'0 0.0
2016-Feb-10 18:34N 49°17' W 123°04'0 0.0
2016-Feb-10 17:34N 49°17' W 123°04'1010.4
2016-Feb-10 16:34N 49°22' W 123°18'0 0.0
2016-Feb-10 15:34N 49°22' W 123°18'0 0.0
2016-Feb-10 14:34N 49°22' W 123°18'0 0.0
2016-Feb-10 13:34N 49°22' W 123°18'0 0.0
2016-Feb-10 12:34N 49°22' W 123°18'0 0.0
2016-Feb-10 11:34N 49°22' W 123°18'0 0.0
2016-Feb-10 10:34N 49°22' W 123°18'0 0.0
2016-Feb-10 09:34N 49°22' W 123°18'0 0.0
2016-Feb-10 08:34N 49°22' W 123°18'0 0.0
2016-Feb-10 07:34N 49°22' W 123°18'0 0.0
2016-Feb-10 06:33N 49°22' W 123°18'0 0.0
2016-Feb-10 05:34N 49°22' W 123°18'0 0.0
2016-Feb-10 04:34N 49°22' W 123°18'0 0.0
2016-Feb-10 03:34N 49°22' W 123°18'0 0.0
2016-Feb-10 02:34N 49°22' W 123°18'0 0.0
2016-Feb-10 01:34N 49°22' W 123°18'0 0.0
2016-Feb-10 00:34N 49°22' W 123°18'0 0.0
2016-Feb-09 23:34N 49°22' W 123°18'0 0.0
2016-Feb-09 22:34N 49°22' W 123°18'0 0.0
2016-Feb-09 21:34N 49°22' W 123°18'0 0.0
2016-Feb-09 20:33N 49°22' W 123°18'0 0.0
2016-Feb-09 19:34N 49°22' W 123°18'0 0.0
2016-Feb-09 18:34N 49°22' W 123°18'0 0.0
2016-Feb-09 17:34N 49°22' W 123°18'0 0.0
2016-Feb-09 16:34N 49°22' W 123°18'0 0.0
2016-Feb-09 15:34N 49°22' W 123°18'0 0.0
2016-Feb-09 14:34N 49°22' W 123°18'0 0.0
2016-Feb-09 13:34N 49°22' W 123°18'0 0.0
2016-Feb-09 12:34N 49°22' W 123°18'0 0.0
2016-Feb-09 11:34N 49°22' W 123°18'0 0.0
2016-Feb-09 10:34N 49°22' W 123°18'0 0.0
2016-Feb-09 09:34N 49°22' W 123°18'0 0.0
2016-Feb-09 08:34N 49°22' W 123°18'0 0.0
2016-Feb-09 07:34N 49°22' W 123°18'0 0.0
2016-Feb-09 06:34N 49°22' W 123°18'0 0.0
2016-Feb-09 05:34N 49°22' W 123°18'7 7.0
2016-Feb-09 04:33N 49°26' W 123°27'6 5.6
2016-Feb-09 03:34N 49°31' W 123°29'7 6.9
2016-Feb-09 02:34N 49°26' W 123°23'8 7.8
2016-Feb-09 01:34N 49°19' W 123°15'8 7.8
2016-Feb-09 00:34N 49°17' W 123°04'0 0.0
2016-Feb-08 23:34N 49°17' W 123°04'0 0.0
2016-Feb-08 22:34N 49°17' W 123°04'0 0.0
2016-Feb-08 21:34N 49°17' W 123°04'0 0.0
2016-Feb-08 20:34N 49°17' W 123°04'0 0.0
2016-Feb-08 19:34N 49°17' W 123°04'0 0.0
2016-Feb-08 18:34N 49°17' W 123°04'0 0.0
2016-Feb-08 17:34N 49°17' W 123°04'0 0.0
2016-Feb-08 16:34N 49°17' W 123°04'0 0.0
2016-Feb-08 15:34N 49°17' W 123°04'0 0.0
2016-Feb-08 14:34N 49°17' W 123°04'0 0.0
2016-Feb-08 13:34N 49°17' W 123°04'0 0.0
2016-Feb-08 12:34N 49°17' W 123°04'0 0.0
2016-Feb-08 11:34N 49°17' W 123°04'0 0.0
2016-Feb-08 10:34N 49°17' W 123°04'0 0.0
2016-Feb-08 09:34N 49°17' W 123°04'0 0.0
2016-Feb-08 08:34N 49°17' W 123°04'0 0.0
2016-Feb-08 07:34N 49°17' W 123°04'0 0.0
2016-Feb-08 06:34N 49°17' W 123°04'0 0.0
2016-Feb-08 05:34N 49°17' W 123°04'0 0.0
2016-Feb-08 04:34N 49°17' W 123°04'0 0.0
2016-Feb-08 03:34N 49°17' W 123°04'0 0.0
2016-Feb-08 02:34N 49°17' W 123°04'0 0.0
2016-Feb-08 01:34N 49°17' W 123°04'0 0.0
2016-Feb-08 00:34N 49°17' W 123°04'0 0.0
2016-Feb-07 23:34N 49°17' W 123°04'0 0.0
2016-Feb-07 22:34N 49°17' W 123°04'0 0.0
2016-Feb-07 21:33N 49°17' W 123°04'0 0.0
2016-Feb-07 20:33N 49°17' W 123°04'0 0.0
2016-Feb-07 19:34N 49°17' W 123°04'0 0.0
2016-Feb-07 18:34N 49°17' W 123°04'0 0.0
2016-Feb-07 17:34N 49°17' W 123°04'0 0.0
2016-Feb-07 16:34N 49°17' W 123°04'0 0.0
2016-Feb-07 15:34N 49°17' W 123°04'0 0.0
2016-Feb-07 14:34N 49°17' W 123°04'0 0.0
2016-Feb-07 13:34N 49°17' W 123°04'0 0.0
2016-Feb-07 12:34N 49°17' W 123°04'0 0.0
2016-Feb-07 11:34N 49°17' W 123°04'0 0.0
2016-Feb-07 10:34N 49°17' W 123°04'0 0.0
2016-Feb-07 09:34N 49°17' W 123°04'0 0.0
2016-Feb-07 08:34N 49°17' W 123°04'1 0.6
2016-Feb-07 07:33N 49°17' W 123°05'1 1.0
2016-Feb-07 06:34N 49°18' W 123°06'1 1.4
2016-Feb-07 05:34N 49°17' W 123°04'0 0.0
2016-Feb-07 04:34N 49°17' W 123°04'0 0.0
2016-Feb-07 03:34N 49°17' W 123°04'0 0.0
2016-Feb-07 02:34N 49°17' W 123°04'0 0.0
2016-Feb-07 01:34N 49°17' W 123°04'0 0.0
2016-Feb-07 00:34N 49°17' W 123°04'1 1.4
2016-Feb-06 23:34N 49°17' W 123°06'2 1.9
2016-Feb-06 22:34N 49°19' W 123°08'3 3.0
2016-Feb-06 21:34N 49°17' W 123°04'0 0.0
2016-Feb-06 20:34N 49°17' W 123°04'0 0.0
2016-Feb-06 19:34N 49°17' W 123°04'0 0.0
2016-Feb-06 18:33N 49°17' W 123°04'0 0.0
2016-Feb-06 17:34N 49°17' W 123°04'0 0.0
2016-Feb-06 16:34N 49°17' W 123°04'0 0.0
2016-Feb-06 15:34N 49°17' W 123°04'0 0.0
2016-Feb-06 14:34N 49°17' W 123°04'0 0.0
2016-Feb-06 13:34N 49°17' W 123°04'0 0.0
2016-Feb-06 12:34N 49°17' W 123°04'0 0.0
2016-Feb-06 11:34N 49°17' W 123°04'0 0.0
2016-Feb-06 10:34N 49°17' W 123°04'0 0.0
2016-Feb-06 09:34N 49°17' W 123°04'1 0.8
2016-Feb-06 08:34N 49°18' W 123°04'1 0.8
2016-Feb-06 07:34N 49°17' W 123°04'0 0.0
2016-Feb-06 06:34N 49°17' W 123°04'1 0.6
2016-Feb-06 05:34N 49°18' W 123°05'1 0.6
2016-Feb-06 04:33N 49°17' W 123°04'0 0.0
2016-Feb-06 03:33N 49°17' W 123°04'0 0.0
2016-Feb-06 02:34N 49°17' W 123°04'0 0.0
2016-Feb-06 01:34N 49°17' W 123°04'0 0.0
2016-Feb-06 00:34N 49°17' W 123°04'0 0.0
2016-Feb-05 23:34N 49°17' W 123°04'0 0.0
2016-Feb-05 22:34N 49°17' W 123°04'0 0.0
2016-Feb-05 21:34N 49°17' W 123°04'0 0.0
2016-Feb-05 20:34N 49°17' W 123°04'0 0.0
2016-Feb-05 19:34N 49°17' W 123°04'0 0.0
2016-Feb-05 18:34N 49°17' W 123°04'0 0.0
2016-Feb-05 17:34N 49°17' W 123°04'0 0.0
2016-Feb-05 16:34N 49°17' W 123°04'0 0.0
2016-Feb-05 15:34N 49°17' W 123°04'0 0.0
2016-Feb-05 14:34N 49°17' W 123°04'0 0.0
2016-Feb-05 13:34N 49°17' W 123°04'0 0.0
2016-Feb-05 12:34N 49°17' W 123°04'0 0.0
2016-Feb-05 11:34N 49°17' W 123°04'0 0.0
2016-Feb-05 10:34N 49°17' W 123°04'0 0.0
2016-Feb-05 09:34N 49°17' W 123°04'0 0.0
2016-Feb-05 08:34N 49°17' W 123°04'0 0.0
2016-Feb-05 07:34N 49°17' W 123°04'0 0.0
2016-Feb-05 06:33N 49°17' W 123°04'0 0.0
2016-Feb-05 05:34N 49°17' W 123°04'0 0.0
2016-Feb-05 04:34N 49°17' W 123°04'0 0.0
2016-Feb-05 03:34N 49°17' W 123°04'0 0.0
2016-Feb-05 02:34N 49°17' W 123°04'0 0.0
2016-Feb-05 01:34N 49°17' W 123°04'0 0.0
2016-Feb-05 00:34N 49°17' W 123°04'1 1.3
2016-Feb-04 23:34N 49°17' W 123°06'1 1.3
2016-Feb-04 22:34N 49°17' W 123°04'0 0.0
2016-Feb-04 21:33N 49°17' W 123°04'0 0.0
2016-Feb-04 20:34N 49°17' W 123°04'0 0.0
2016-Feb-04 19:34N 49°17' W 123°04'0 0.0
2016-Feb-04 18:34N 49°17' W 123°04'0 0.0
2016-Feb-04 17:34N 49°17' W 123°04'0 0.0
2016-Feb-04 16:34N 49°17' W 123°04'0 0.0
2016-Feb-04 15:34N 49°17' W 123°04'0 0.0
2016-Feb-04 14:34N 49°17' W 123°04'0 0.0
2016-Feb-04 13:34N 49°17' W 123°04'0 0.0
2016-Feb-04 12:34N 49°17' W 123°04'0 0.0
2016-Feb-04 11:34N 49°17' W 123°04'0 0.0
2016-Feb-04 10:34N 49°17' W 123°04'0 0.0
2016-Feb-04 09:34N 49°17' W 123°04'0 0.0
2016-Feb-04 08:34N 49°17' W 123°04'4 4.0
2016-Feb-04 07:34N 49°19' W 123°09'8 8.3
2016-Feb-04 06:34N 49°26' W 123°17'1211.8
2016-Feb-04 05:33N 49°37' W 123°14'4 4.5
2016-Feb-04 04:33N 49°41' W 123°10'6 5.7
2016-Feb-04 03:33N 49°36' W 123°15'7 7.5
2016-Feb-04 02:33N 49°29' W 123°19'8 8.4
2016-Feb-04 01:34N 49°21' W 123°17'9 9.4
2016-Feb-04 00:34N 49°17' W 123°04'1 0.6
2016-Feb-03 23:34N 49°18' W 123°05'0 0.3
2016-Feb-03 22:33N 49°17' W 123°05'0 0.0
2016-Feb-03 21:34N 49°17' W 123°05'1 0.6
2016-Feb-03 20:34N 49°17' W 123°04'0 0.0
2016-Feb-03 19:34N 49°17' W 123°04'0 0.0
2016-Feb-03 18:34N 49°17' W 123°04'0 0.0
2016-Feb-03 17:33N 49°17' W 123°04'0 0.0
2016-Feb-03 16:34N 49°17' W 123°04'0 0.0
2016-Feb-03 15:34N 49°17' W 123°04'0 0.0
2016-Feb-03 14:34N 49°17' W 123°04'0 0.0
2016-Feb-03 13:34N 49°17' W 123°04'0 0.0
2016-Feb-03 12:34N 49°17' W 123°04'0 0.0
2016-Feb-03 11:33N 49°17' W 123°04'2 2.4
2016-Feb-03 10:34N 49°18' W 123°00'5 5.1
2016-Feb-03 09:33N 49°18' W 122°52'5 5.1
2016-Feb-03 08:34N 49°18' W 122°60'2 2.5
2016-Feb-03 07:34N 49°17' W 123°04'0 0.0
2016-Feb-03 06:34N 49°17' W 123°04'0 0.0
2016-Feb-03 05:34N 49°17' W 123°04'0 0.0
2016-Feb-03 04:34N 49°17' W 123°04'  
Track history (hours):
 
Tides and Currents Weather Stations Pressure Air Temp Water Temp Dewpoint Dewpoint Depression Visibility Wind Speed Wind Dir Waves Ship Positions

Sst Orleans

Last reported at 2016-Feb-13 04:34 UTC. Time now 2016-Feb-13 04:37 UTC.
Position N 49°18' W 123°03'.

Length 29 m; draft 5.1 m.

Type: . MMSI: 316012721.

Date/timePositionNaut miles runAvg speedWind from/ knotsBaromVisibWave heightAir tempDewpointWater temp
2016-Feb-13 04:34N 49°18' W 123°03'1 0.6
2016-Feb-13 03:34N 49°18' W 123°04'0 0.1
2016-Feb-13 02:34N 49°17' W 123°04'1 0.8
2016-Feb-13 01:34N 49°17' W 123°05'1 0.8
2016-Feb-13 00:34N 49°17' W 123°04'0 0.0
2016-Feb-12 23:34N 49°17' W 123°04'0 0.0
2016-Feb-12 22:34N 49°17' W 123°04'0 0.0
2016-Feb-12 21:34N 49°17' W 123°04'0 0.0
2016-Feb-12 20:34N 49°17' W 123°04'0 0.0
2016-Feb-12 19:34N 49°17' W 123°04'2 2.2
2016-Feb-12 18:34N 49°18' W 123°07'1 0.9
2016-Feb-12 17:33N 49°18' W 123°06'1 1.3
2016-Feb-12 16:34N 49°17' W 123°04'0 0.0
2016-Feb-12 15:34N 49°17' W 123°04'0 0.0
2016-Feb-12 14:34N 49°17' W 123°04'0 0.0
2016-Feb-12 13:34N 49°17' W 123°04'0 0.0
2016-Feb-12 12:34N 49°17' W 123°04'0 0.0
2016-Feb-12 11:34N 49°17' W 123°04'0 0.0
2016-Feb-12 10:34N 49°17' W 123°04'0 0.0
2016-Feb-12 09:34N 49°17' W 123°04'0 0.0
2016-Feb-12 08:33N 49°17' W 123°04'0 0.0
2016-Feb-12 07:33N 49°17' W 123°04'0 0.0
2016-Feb-12 06:34N 49°17' W 123°04'0 0.0
2016-Feb-12 05:33N 49°17' W 123°04'0 0.0
2016-Feb-12 04:34N 49°17' W 123°04'0 0.0
2016-Feb-12 03:34N 49°17' W 123°04'0 0.0
2016-Feb-12 02:34N 49°17' W 123°04'0 0.0
2016-Feb-12 01:34N 49°17' W 123°04'0 0.0
2016-Feb-12 00:34N 49°17' W 123°04'1 0.6
2016-Feb-11 23:34N 49°17' W 123°05'0 0.4
2016-Feb-11 22:34N 49°18' W 123°05'1 1.0
2016-Feb-11 21:34N 49°17' W 123°04'0 0.0
2016-Feb-11 20:34N 49°17' W 123°04'0 0.0
2016-Feb-11 19:34N 49°17' W 123°04'0 0.0
2016-Feb-11 18:34N 49°17' W 123°04'0 0.0
2016-Feb-11 17:34N 49°17' W 123°04'0 0.0
2016-Feb-11 16:33N 49°17' W 123°04'0 0.0
2016-Feb-11 15:34N 49°17' W 123°04'0 0.0
2016-Feb-11 14:33N 49°17' W 123°04'0 0.0
2016-Feb-11 13:34N 49°17' W 123°04'0 0.0
2016-Feb-11 12:34N 49°17' W 123°04'0 0.0
2016-Feb-11 11:34N 49°17' W 123°04'0 0.0
2016-Feb-11 10:34N 49°17' W 123°04'0 0.0
2016-Feb-11 09:33N 49°17' W 123°04'0 0.0
2016-Feb-11 08:34N 49°17' W 123°04'0 0.0
2016-Feb-11 07:33N 49°17' W 123°04'0 0.0
2016-Feb-11 06:34N 49°17' W 123°04'0 0.0
2016-Feb-11 05:34N 49°17' W 123°04'0 0.0
2016-Feb-11 04:34N 49°17' W 123°04'0 0.0
2016-Feb-11 03:34N 49°17' W 123°04'0 0.0
2016-Feb-11 02:34N 49°17' W 123°04'0 0.0
2016-Feb-11 01:34N 49°17' W 123°04'0 0.0
2016-Feb-11 00:34N 49°17' W 123°04'0 0.0
2016-Feb-10 23:34N 49°17' W 123°04'0 0.0
2016-Feb-10 22:34N 49°17' W 123°04'0 0.0
2016-Feb-10 21:34N 49°17' W 123°04'0 0.0
2016-Feb-10 20:34N 49°17' W 123°04'0 0.0
2016-Feb-10 19:34N 49°17' W 123°04'0 0.0
2016-Feb-10 18:34N 49°17' W 123°04'0 0.0
2016-Feb-10 17:34N 49°17' W 123°04'1010.4
2016-Feb-10 16:34N 49°22' W 123°18'0 0.0
2016-Feb-10 15:34N 49°22' W 123°18'0 0.0
2016-Feb-10 14:34N 49°22' W 123°18'0 0.0
2016-Feb-10 13:34N 49°22' W 123°18'0 0.0
2016-Feb-10 12:34N 49°22' W 123°18'0 0.0
2016-Feb-10 11:34N 49°22' W 123°18'0 0.0
2016-Feb-10 10:34N 49°22' W 123°18'0 0.0
2016-Feb-10 09:34N 49°22' W 123°18'0 0.0
2016-Feb-10 08:34N 49°22' W 123°18'0 0.0
2016-Feb-10 07:34N 49°22' W 123°18'0 0.0
2016-Feb-10 06:33N 49°22' W 123°18'0 0.0
2016-Feb-10 05:34N 49°22' W 123°18'0 0.0
2016-Feb-10 04:34N 49°22' W 123°18'0 0.0
2016-Feb-10 03:34N 49°22' W 123°18'0 0.0
2016-Feb-10 02:34N 49°22' W 123°18'0 0.0
2016-Feb-10 01:34N 49°22' W 123°18'0 0.0
2016-Feb-10 00:34N 49°22' W 123°18'0 0.0
2016-Feb-09 23:34N 49°22' W 123°18'0 0.0
2016-Feb-09 22:34N 49°22' W 123°18'0 0.0
2016-Feb-09 21:34N 49°22' W 123°18'0 0.0
2016-Feb-09 20:33N 49°22' W 123°18'0 0.0
2016-Feb-09 19:34N 49°22' W 123°18'0 0.0
2016-Feb-09 18:34N 49°22' W 123°18'0 0.0
2016-Feb-09 17:34N 49°22' W 123°18'0 0.0
2016-Feb-09 16:34N 49°22' W 123°18'0 0.0
2016-Feb-09 15:34N 49°22' W 123°18'0 0.0
2016-Feb-09 14:34N 49°22' W 123°18'0 0.0
2016-Feb-09 13:34N 49°22' W 123°18'0 0.0
2016-Feb-09 12:34N 49°22' W 123°18'0 0.0
2016-Feb-09 11:34N 49°22' W 123°18'0 0.0
2016-Feb-09 10:34N 49°22' W 123°18'0 0.0
2016-Feb-09 09:34N 49°22' W 123°18'0 0.0
2016-Feb-09 08:34N 49°22' W 123°18'0 0.0
2016-Feb-09 07:34N 49°22' W 123°18'0 0.0
2016-Feb-09 06:34N 49°22' W 123°18'0 0.0
2016-Feb-09 05:34N 49°22' W 123°18'7 7.0
2016-Feb-09 04:33N 49°26' W 123°27'6 5.6
2016-Feb-09 03:34N 49°31' W 123°29'7 6.9
2016-Feb-09 02:34N 49°26' W 123°23'8 7.8
2016-Feb-09 01:34N 49°19' W 123°15'8 7.8
2016-Feb-09 00:34N 49°17' W 123°04'0 0.0
2016-Feb-08 23:34N 49°17' W 123°04'0 0.0
2016-Feb-08 22:34N 49°17' W 123°04'0 0.0
2016-Feb-08 21:34N 49°17' W 123°04'0 0.0
2016-Feb-08 20:34N 49°17' W 123°04'0 0.0
2016-Feb-08 19:34N 49°17' W 123°04'0 0.0
2016-Feb-08 18:34N 49°17' W 123°04'0 0.0
2016-Feb-08 17:34N 49°17' W 123°04'0 0.0
2016-Feb-08 16:34N 49°17' W 123°04'0 0.0
2016-Feb-08 15:34N 49°17' W 123°04'0 0.0
2016-Feb-08 14:34N 49°17' W 123°04'0 0.0
2016-Feb-08 13:34N 49°17' W 123°04'0 0.0
2016-Feb-08 12:34N 49°17' W 123°04'0 0.0
2016-Feb-08 11:34N 49°17' W 123°04'0 0.0
2016-Feb-08 10:34N 49°17' W 123°04'0 0.0
2016-Feb-08 09:34N 49°17' W 123°04'0 0.0
2016-Feb-08 08:34N 49°17' W 123°04'0 0.0
2016-Feb-08 07:34N 49°17' W 123°04'0 0.0
2016-Feb-08 06:34N 49°17' W 123°04'0 0.0
2016-Feb-08 05:34N 49°17' W 123°04'0 0.0
2016-Feb-08 04:34N 49°17' W 123°04'0 0.0
2016-Feb-08 03:34N 49°17' W 123°04'0 0.0
2016-Feb-08 02:34N 49°17' W 123°04'0 0.0
2016-Feb-08 01:34N 49°17' W 123°04'0 0.0
2016-Feb-08 00:34N 49°17' W 123°04'0 0.0
2016-Feb-07 23:34N 49°17' W 123°04'0 0.0
2016-Feb-07 22:34N 49°17' W 123°04'0 0.0
2016-Feb-07 21:33N 49°17' W 123°04'0 0.0
2016-Feb-07 20:33N 49°17' W 123°04'0 0.0
2016-Feb-07 19:34N 49°17' W 123°04'0 0.0
2016-Feb-07 18:34N 49°17' W 123°04'0 0.0
2016-Feb-07 17:34N 49°17' W 123°04'0 0.0
2016-Feb-07 16:34N 49°17' W 123°04'0 0.0
2016-Feb-07 15:34N 49°17' W 123°04'0 0.0
2016-Feb-07 14:34N 49°17' W 123°04'0 0.0
2016-Feb-07 13:34N 49°17' W 123°04'0 0.0
2016-Feb-07 12:34N 49°17' W 123°04'0 0.0
2016-Feb-07 11:34N 49°17' W 123°04'0 0.0
2016-Feb-07 10:34N 49°17' W 123°04'0 0.0
2016-Feb-07 09:34N 49°17' W 123°04'0 0.0
2016-Feb-07 08:34N 49°17' W 123°04'1 0.6
2016-Feb-07 07:33N 49°17' W 123°05'1 1.0
2016-Feb-07 06:34N 49°18' W 123°06'1 1.4
2016-Feb-07 05:34N 49°17' W 123°04'0 0.0
2016-Feb-07 04:34N 49°17' W 123°04'0 0.0
2016-Feb-07 03:34N 49°17' W 123°04'0 0.0
2016-Feb-07 02:34N 49°17' W 123°04'0 0.0
2016-Feb-07 01:34N 49°17' W 123°04'0 0.0
2016-Feb-07 00:34N 49°17' W 123°04'1 1.4
2016-Feb-06 23:34N 49°17' W 123°06'2 1.9
2016-Feb-06 22:34N 49°19' W 123°08'3 3.0
2016-Feb-06 21:34N 49°17' W 123°04'0 0.0
2016-Feb-06 20:34N 49°17' W 123°04'0 0.0
2016-Feb-06 19:34N 49°17' W 123°04'0 0.0
2016-Feb-06 18:33N 49°17' W 123°04'0 0.0
2016-Feb-06 17:34N 49°17' W 123°04'0 0.0
2016-Feb-06 16:34N 49°17' W 123°04'0 0.0
2016-Feb-06 15:34N 49°17' W 123°04'0 0.0
2016-Feb-06 14:34N 49°17' W 123°04'0 0.0
2016-Feb-06 13:34N 49°17' W 123°04'0 0.0
2016-Feb-06 12:34N 49°17' W 123°04'0 0.0
2016-Feb-06 11:34N 49°17' W 123°04'0 0.0
2016-Feb-06 10:34N 49°17' W 123°04'0 0.0
2016-Feb-06 09:34N 49°17' W 123°04'1 0.8
2016-Feb-06 08:34N 49°18' W 123°04'1 0.8
2016-Feb-06 07:34N 49°17' W 123°04'0 0.0
2016-Feb-06 06:34N 49°17' W 123°04'1 0.6
2016-Feb-06 05:34N 49°18' W 123°05'1 0.6
2016-Feb-06 04:33N 49°17' W 123°04'0 0.0
2016-Feb-06 03:33N 49°17' W 123°04'0 0.0
2016-Feb-06 02:34N 49°17' W 123°04'0 0.0
2016-Feb-06 01:34N 49°17' W 123°04'0 0.0
2016-Feb-06 00:34N 49°17' W 123°04'0 0.0
2016-Feb-05 23:34N 49°17' W 123°04'0 0.0
2016-Feb-05 22:34N 49°17' W 123°04'0 0.0
2016-Feb-05 21:34N 49°17' W 123°04'0 0.0
2016-Feb-05 20:34N 49°17' W 123°04'0 0.0
2016-Feb-05 19:34N 49°17' W 123°04'0 0.0
2016-Feb-05 18:34N 49°17' W 123°04'0 0.0
2016-Feb-05 17:34N 49°17' W 123°04'0 0.0
2016-Feb-05 16:34N 49°17' W 123°04'0 0.0
2016-Feb-05 15:34N 49°17' W 123°04'0 0.0
2016-Feb-05 14:34N 49°17' W 123°04'0 0.0
2016-Feb-05 13:34N 49°17' W 123°04'0 0.0
2016-Feb-05 12:34N 49°17' W 123°04'0 0.0
2016-Feb-05 11:34N 49°17' W 123°04'0 0.0
2016-Feb-05 10:34N 49°17' W 123°04'0 0.0
2016-Feb-05 09:34N 49°17' W 123°04'0 0.0
2016-Feb-05 08:34N 49°17' W 123°04'0 0.0
2016-Feb-05 07:34N 49°17' W 123°04'0 0.0
2016-Feb-05 06:33N 49°17' W 123°04'0 0.0
2016-Feb-05 05:34N 49°17' W 123°04'0 0.0
2016-Feb-05 04:34N 49°17' W 123°04'0 0.0
2016-Feb-05 03:34N 49°17' W 123°04'0 0.0
2016-Feb-05 02:34N 49°17' W 123°04'0 0.0
2016-Feb-05 01:34N 49°17' W 123°04'0 0.0
2016-Feb-05 00:34N 49°17' W 123°04'1 1.3
2016-Feb-04 23:34N 49°17' W 123°06'1 1.3
2016-Feb-04 22:34N 49°17' W 123°04'0 0.0
2016-Feb-04 21:33N 49°17' W 123°04'0 0.0
2016-Feb-04 20:34N 49°17' W 123°04'0 0.0
2016-Feb-04 19:34N 49°17' W 123°04'0 0.0
2016-Feb-04 18:34N 49°17' W 123°04'0 0.0
2016-Feb-04 17:34N 49°17' W 123°04'0 0.0
2016-Feb-04 16:34N 49°17' W 123°04'0 0.0
2016-Feb-04 15:34N 49°17' W 123°04'0 0.0
2016-Feb-04 14:34N 49°17' W 123°04'0 0.0
2016-Feb-04 13:34N 49°17' W 123°04'0 0.0
2016-Feb-04 12:34N 49°17' W 123°04'0 0.0
2016-Feb-04 11:34N 49°17' W 123°04'0 0.0
2016-Feb-04 10:34N 49°17' W 123°04'0 0.0
2016-Feb-04 09:34N 49°17' W 123°04'0 0.0
2016-Feb-04 08:34N 49°17' W 123°04'4 4.0
2016-Feb-04 07:34N 49°19' W 123°09'8 8.3
2016-Feb-04 06:34N 49°26' W 123°17'1211.8
2016-Feb-04 05:33N 49°37' W 123°14'4 4.5
2016-Feb-04 04:33N 49°41' W 123°10'6 5.7
2016-Feb-04 03:33N 49°36' W 123°15'7 7.5
2016-Feb-04 02:33N 49°29' W 123°19'8 8.4
2016-Feb-04 01:34N 49°21' W 123°17'9 9.4
2016-Feb-04 00:34N 49°17' W 123°04'1 0.6
2016-Feb-03 23:34N 49°18' W 123°05'0 0.3
2016-Feb-03 22:33N 49°17' W 123°05'0 0.0
2016-Feb-03 21:34N 49°17' W 123°05'1 0.6
2016-Feb-03 20:34N 49°17' W 123°04'0 0.0
2016-Feb-03 19:34N 49°17' W 123°04'0 0.0
2016-Feb-03 18:34N 49°17' W 123°04'0 0.0
2016-Feb-03 17:33N 49°17' W 123°04'0 0.0
2016-Feb-03 16:34N 49°17' W 123°04'0 0.0
2016-Feb-03 15:34N 49°17' W 123°04'0 0.0
2016-Feb-03 14:34N 49°17' W 123°04'0 0.0
2016-Feb-03 13:34N 49°17' W 123°04'0 0.0
2016-Feb-03 12:34N 49°17' W 123°04'0 0.0
2016-Feb-03 11:33N 49°17' W 123°04'2 2.4
2016-Feb-03 10:34N 49°18' W 123°00'5 5.1
2016-Feb-03 09:33N 49°18' W 122°52'5 5.1
2016-Feb-03 08:34N 49°18' W 122°60'2 2.5
2016-Feb-03 07:34N 49°17' W 123°04'0 0.0
2016-Feb-03 06:34N 49°17' W 123°04'0 0.0
2016-Feb-03 05:34N 49°17' W 123°04'0 0.0
2016-Feb-03 04:34N 49°17' W 123°04'  

Dump ship's entire track history